Terminal Aerodrome Forecast
Issued by NWS

Home | Current Version | Previous Version | Text Only | Print | Product List | Glossary On
Versions: 1 2 3 4 5 6 7 8 9 10 11 12
690
FTUS42 TJSJ 221134
TAFJPS
TAF
TJPS 221134Z 2212/2312 05002KT P6SM FEW025 SCT050 BKN200
     FM221450 14012KT P6SM FEW030 SCT200
     FM222200 05003KT P6SM FEW030
      AMD NOT SKED TIL 230300=

USA.gov is the U.S. government's official web portal to all federal, state and local government web resources and services.